Flight Track Log - Related Links

Times and Time Zones

All times are in EDT time to prevent confusion due to time zone crossing. See the UAL4419 flight status page for this flight to view local times or setup timezone preferences in your user account.

Time Position Orientation Groundspeed Altitude Reporting Facility
EDT Latitude Longitude Course Direction KTS MPH feet Rate Location/Type
Thu 09:34:03 PM 29.9778 -95.3367 30° Northeast 161 185 900  Level Houston Center
Thu 09:34:22 PM 29.9772 -95.3536 268° West 166 191 1,700 1,737 Climbing Houston Center
Thu 09:35:19 PM 30.0036 -95.3700 332° Northwest 203 234 3,100 1,513 Climbing Houston Center
Thu 09:36:21 PM 30.0711 -95.3303 27° Northeast 225 259 4,700 1,742 Climbing Houston Center
Thu 09:37:00 PM 30.4147 -95.1593 23° Northeast  Level FlightAware Approximate
Thu 09:37:23 PM 30.1353 -95.2992 23° Northeast 240 276 6,700  Level Houston Center
Thu 09:38:00 PM 30.5173 -95.1000 North  Level FlightAware Approximate
Thu 09:38:24 PM 30.2136 -95.2622 22° Northeast 287 330 8,800  Level Houston Center
Thu 09:39:00 PM 30.6166 -95.0390 30° Northeast  Level FlightAware Approximate
Thu 09:39:26 PM 30.2925 -95.2217 24° Northeast 305 351 11,000  Level Houston Center
Thu 09:40:28 PM 30.3806 -95.1797 22° Northeast 332 382 12,100 1,073 Climbing Houston Center
Thu 09:41:29 PM 30.4778 -95.1278 25° Northeast 366 421 13,200 1,122 Climbing Houston Center
Thu 09:42:31 PM 30.5814 -95.0764 23° Northeast 392 451 14,400 1,403 Climbing Houston Center
Thu 09:43:33 PM 30.7053 -95.0025 27° Northeast 412 474 16,100 1,463 Climbing Houston Center
Thu 09:44:34 PM 30.8072 -94.9367 29° Northeast 417 480 17,400 1,317 Climbing Houston Center
Thu 09:45:36 PM 30.9128 -94.8719 28° Northeast 425 489 18,800 1,281 Climbing Houston Center
Thu 09:46:03 PM 30.9556 -94.8481 26° Northeast 407 468 19,300 1,310 Climbing Fort Worth Center
Thu 09:47:03 PM 31.0628 -94.7797 29° Northeast 413 475 20,700 1,350 Climbing Fort Worth Center
Thu 09:48:03 PM 31.1739 -94.7111 28° Northeast 428 493 22,000 1,300 Climbing Fort Worth Center
Thu 09:49:03 PM 31.2831 -94.6350 31° Northeast 440 506 23,300 1,400 Climbing Fort Worth Center
Thu 09:50:03 PM 31.4064 -94.5486 31° Northeast 456 525 24,800 1,250 Climbing Fort Worth Center
Thu 09:51:03 PM 31.5172 -94.4719 31° Northeast 462 532 25,800 1,050 Climbing Fort Worth Center
Thu 09:52:03 PM 31.6303 -94.3953 30° Northeast 462 532 26,900 1,150 Climbing Fort Worth Center
Thu 09:53:03 PM 31.7431 -94.3158 31° Northeast 467 537 28,100 1,250 Climbing Fort Worth Center
Thu 09:54:03 PM 31.8622 -94.2336 30° Northeast 474 545 29,400 1,250 Climbing Fort Worth Center
Thu 09:55:03 PM 31.9728 -94.1514 32° Northeast 474 545 30,600 1,200 Climbing Fort Worth Center
Thu 09:56:03 PM 32.0897 -94.0711 30° Northeast 474 545 31,800 1,150 Climbing Fort Worth Center
Thu 09:57:03 PM 32.2083 -93.9808 33° Northeast 486 559 32,900 600 Climbing Fort Worth Center
Thu 09:58:03 PM 32.3292 -93.8953 31° Northeast 491 565 33,000 50 Climbing Fort Worth Center
Thu 09:59:03 PM 32.4581 -93.8067 30° Northeast 506 582 33,000  Level Fort Worth Center
Thu 10:00:03 PM 32.5892 -93.7150 30° Northeast 527 606 33,000  Level Fort Worth Center
Thu 10:01:03 PM 32.7219 -93.6181 32° Northeast 539 620 33,000  Level Fort Worth Center
Thu 10:02:03 PM 32.8528 -93.5261 31° Northeast 539 620 33,000  Level Fort Worth Center
Thu 10:03:03 PM 32.9811 -93.4314 32° Northeast 539 620 33,000  Level Fort Worth Center
Thu 10:04:03 PM 33.1117 -93.3364 31° Northeast 544 626 33,000  Level Fort Worth Center
Thu 10:05:03 PM 33.2422 -93.2458 30° Northeast 544 626 33,000  Level Fort Worth Center
Thu 10:07:05 PM 33.4964 -93.0625 31° Northeast 562 647 33,000 -264 Level Memphis Center
Thu 10:08:05 PM 33.6239 -92.9667 32° Northeast 557 641 32,200 -900 Descending Memphis Center
Thu 10:09:05 PM 33.7531 -92.8756 30° Northeast 544 626 31,200 -1,200 Descending Memphis Center
Thu 10:10:05 PM 33.8800 -92.7817 32° Northeast 539 620 29,800 -2,250 Descending Memphis Center
Thu 10:11:05 PM 34.0028 -92.6900 32° Northeast 534 615 26,700 -3,350 Descending Memphis Center
Thu 10:12:05 PM 34.1256 -92.5978 32° Northeast 507 583 23,100 -3,588 Descending Memphis Center
Thu 10:12:47 PM 34.2122 -92.5322 32° Northeast 496 571 20,600 -3,400 Descending Memphis Center
Thu 10:13:05 PM 34.2503 -92.5031 32° Northeast 508 585 19,700 -3,541 Descending Memphis Center
Thu 10:13:48 PM 34.3306 -92.4422 32° Northeast 475 547 17,000 -3,400 Descending Memphis Center
Thu 10:14:05 PM 34.3625 -92.4178 32° Northeast 488 562 16,300 -3,049 Descending Memphis Center
Thu 10:14:49 PM 34.4342 -92.3667 30° Northeast 456 525 13,900 -3,000 Descending Memphis Center
Thu 10:15:05 PM 34.4700 -92.3372 34° Northeast 470 541 13,300 -2,200 Descending Memphis Center
Thu 10:15:49 PM 34.5378 -92.2883 31° Northeast 402 463 11,700 -2,000 Descending Memphis Center
Thu 10:16:05 PM 34.5672 -92.2664 32° Northeast 433 498 11,300 -2,164 Descending Memphis Center
Thu 10:16:50 PM 34.6219 -92.2247 32° Northeast 348 400 9,500 -2,200 Descending Memphis Center
Thu 10:17:05 PM 34.6475 -92.2025 36° Northeast 384 442 9,100 -1,612 Descending Memphis Center
Thu 10:17:57 PM 34.6983 -92.1481 41° Northeast 308 354 7,700 -1,925 Descending Memphis Center
Thu 10:18:51 PM 34.7431 -92.0758 53° Northeast 261 300 5,700 -1,781 Descending Memphis Center
Thu 10:20:05 PM 34.8042 -92.0442 23° Northeast 187 215 3,900 -1,465 Descending Memphis Center
Thu 10:20:58 PM 34.7906 -92.1069 255° West 175 201 2,600 -1,200 Descending Memphis Center
Thu 10:22:05 PM 34.7714 -92.1522 243° Southwest 119 137 1,500 -756 Descending Memphis Center
Thu 10:23:05 PM 34.7564 -92.1744 231° Southwest 110 127 1,000 -500 Descending Memphis Center

Login

Don't have an account? Register now (free) for customized features, flight alerts, and more!